Heidrick, KY

8:47 AM EDT on October 01, 2014 (GMT -0400)
Jonesville | Change Station
CLOSE
Current Station
Airport
Location: Jonesville,
Elevation: 1411 ft
Nearby Weather Stations

Elev 1411 ft 36.65 °N, 83.22 °W | Updated 12 minutes ago

Partly Cloudy
Partly Cloudy
55 °F
Feels Like 55 °F
N
0
Wind Variable Wind from North

Today
High -- | Low -- °F
--% Chance of Precip.
Yesterday
High -- | Low -- °F
Precip. -- in
7:30 AM 7:18 PM
Waxing Crescent, 47% visible
Pressure 30.03 in
Visibility 0.2 miles
Clouds Overcast 200 ft
Dew Point 55 °F
Humidity 100%
Rainfall 0.00 in
Snow Depth Not available.
UV 0 out of 12
Pollen 4.10 out of 12
Air Quality Not available.
Flu Activity Not available.
METAR K0VG 301235Z AUTO 00000KT M1/4SM FG OVC002 13/13 A3003 RMK AO2

More Conditions Fewer Conditions

Pressure 30.03 in
Visibility 0.2 miles
Clouds Overcast 200 ft
Dew Point 55 °F
Humidity 100%
Rainfall 0.00 in
Snow Depth Not available.
UV 0 out of 12
Pollen 4.10 out of 12
Air Quality Not available.
Flu Activity Not available.
METAR K0VG 301235Z AUTO 00000KT M1/4SM FG OVC002 13/13 A3003 RMK AO2

More Conditions Fewer Conditions

10-Day Weather Forecast

Almanac

Astronomy

Oct. 01, 2014 Rise Set
Actual Time 7:30 AM EDT 7:18 PM EDT
Civil Twilight 7:04 AM EDT 7:44 PM EDT
Nautical Twilight 6:34 AM EDT 8:14 PM EDT
Astronomical Twilight 6:04 AM EDT 8:44 PM EDT
Moon 2:24 PM EDT No Moon Set
Length of Visible Light 12h 39m
Length of Day
11h 48m
Tomorrow will be 2m 20s shorter.
Waxing Crescent, 47% of the Moon is Illuminated
Today
Waxing Crescent
Oct 1
First Quarter
Oct 8
Full
Oct 15
Last Quarter
Oct 23
New

Today's Extremes

State Highs State Lows

Community

WunderPhotos

Upload Photos

1,757,917 photos uploaded!

Nearby

Snow Depth

Station Depth Elevation
No new snow has been reported.

Earthquake Activity

City Distance Mag. Time & Date
No recent earthquake activity has been reported nearby.
Minimum magnitude displayed is 2.5.

Coastal Water Temperatures

Place Temperature
No Stations Reporting

Nearby Weather Stations